Time;durP1;ratioP1;P1;durP2;ratioP2;P2;SDS_P1;SDS_P2;PMS_P1;PMS_P2;Temp;Humidity;BMP_temperature;BMP_pressure;BME280_temperature;BME280_humidity;BME280_pressure;Samples;Min_cycle;Max_cycle;Signal;HPM_P1;HPM_P2
2022/09/22 00:01:55;;;;;;;1999.90;999.90;;;13.20;99.80;;;;;;4972634;28;20035;-81
2022/09/22 00:04:20;;;;;;;1999.90;999.90;;;13.20;99.70;;;;;;4973345;28;20034;-77
2022/09/22 00:06:47;;;;;;;1999.90;999.90;;;13.10;99.90;;;;;;4971708;28;20145;-76
2022/09/22 00:09:16;;;;;;;1999.90;999.90;;;13.10;99.90;;;;;;4971757;28;20541;-76
2022/09/22 00:11:44;;;;;;;1999.90;999.90;;;13.00;99.90;;;;;;4972722;28;20041;-76
2022/09/22 00:14:24;;;;;;;1999.90;999.90;;;13.00;99.90;;;;;;4973020;28;20052;-77
2022/09/22 00:16:57;;;;;;;1999.90;999.90;;;12.90;99.90;;;;;;4981580;28;20084;-76
2022/09/22 00:19:25;;;;;;;1999.90;999.90;;;12.80;99.90;;;;;;4991949;28;20562;-76
2022/09/22 00:21:51;;;;;;;1999.90;999.90;;;12.80;99.90;;;;;;4993443;28;20037;-81
2022/09/22 00:24:18;;;;;;;1999.90;999.90;;;12.70;99.90;;;;;;4996116;28;20018;-81
2022/09/22 00:26:44;;;;;;;1999.90;999.90;;;12.70;99.90;;;;;;4996396;28;20030;-76
2022/09/22 00:29:11;;;;;;;1999.90;999.90;;;12.70;99.90;;;;;;4994863;28;20034;-77
2022/09/22 00:31:39;;;;;;;1999.90;999.90;;;12.60;99.90;;;;;;4995662;28;20034;-76
2022/09/22 00:34:06;;;;;;;1999.90;999.90;;;12.60;99.90;;;;;;4996058;28;20026;-81
2022/09/22 00:36:32;;;;;;;1999.90;999.90;;;12.60;99.90;;;;;;4995972;28;20078;-76
2022/09/22 00:38:58;;;;;;;1999.90;999.90;;;12.50;99.90;;;;;;4996153;28;20088;-81
2022/09/22 00:41:27;;;;;;;1999.90;999.90;;;12.50;99.90;;;;;;4995809;28;20045;-77
2022/09/22 00:44:30;;;;;;;1999.90;999.90;;;12.50;99.90;;;;;;4996168;28;20023;-76
2022/09/22 00:47:04;;;;;;;1999.90;999.90;;;12.40;99.90;;;;;;4994766;28;20023;-76
2022/09/22 00:49:43;;;;;;;1999.90;999.90;;;12.40;99.90;;;;;;4995870;28;20549;-81
2022/09/22 00:52:10;;;;;;;1999.90;999.90;;;12.30;99.90;;;;;;4995716;28;20438;-81
2022/09/22 00:54:36;;;;;;;1999.90;999.90;;;12.30;99.90;;;;;;4994504;28;20117;-76
2022/09/22 00:57:10;;;;;;;1999.90;999.90;;;12.30;99.90;;;;;;4995879;28;20034;-76
2022/09/22 00:59:36;;;;;;;1999.90;999.90;;;12.20;99.90;;;;;;4987009;28;20500;-76
2022/09/22 01:02:02;;;;;;;1999.90;999.90;;;12.20;99.90;;;;;;4975565;28;20031;-81
2022/09/22 01:04:28;;;;;;;1999.90;999.90;;;12.20;99.90;;;;;;4976203;28;20073;-76
2022/09/22 01:06:56;;;;;;;1999.90;999.90;;;12.20;99.90;;;;;;4976221;28;20448;-81
2022/09/22 01:09:23;;;;;;;1999.90;999.90;;;12.20;99.90;;;;;;4976059;28;20030;-76
2022/09/22 01:11:48;;;;;;;1999.90;999.90;;;12.20;99.90;;;;;;4988566;28;20111;-76
2022/09/22 01:14:23;;;;;;;1999.90;999.90;;;12.20;99.90;;;;;;4974631;28;20039;-81
2022/09/22 01:17:01;;;;;;;1999.90;999.90;;;12.20;99.90;;;;;;4984446;28;20413;-81
2022/09/22 01:19:38;;;;;;;1999.90;999.90;;;12.20;99.90;;;;;;4994849;28;20027;-81
2022/09/22 01:22:19;;;;;;;1999.90;999.90;;;12.10;99.90;;;;;;4995082;28;20453;-76
2022/09/22 01:25:13;;;;;;;1999.90;999.90;;;12.10;99.90;;;;;;4993825;28;20064;-76
2022/09/22 01:27:48;;;;;;;1999.90;999.90;;;12.00;99.90;;;;;;4994978;28;20030;-76
2022/09/22 01:30:22;;;;;;;1999.90;999.90;;;12.00;99.90;;;;;;4994920;28;20022;-81
2022/09/22 01:33:15;;;;;;;1999.90;999.90;;;11.90;99.90;;;;;;4993024;28;20478;-76
2022/09/22 01:36:14;;;;;;;1999.90;999.90;;;11.90;99.90;;;;;;4995094;28;20100;-76
2022/09/22 01:39:20;;;;;;;1999.90;999.90;;;11.90;99.90;;;;;;4985615;28;20018;-81
2022/09/22 01:42:01;;;;;;;1999.90;999.90;;;11.90;99.90;;;;;;4993660;28;20043;-76
2022/09/22 01:44:57;;;;;;;1999.90;999.90;;;11.80;99.90;;;;;;4994774;28;20054;-76
2022/09/22 01:47:49;;;;;;;1999.90;999.90;;;11.80;99.90;;;;;;4993730;28;20031;-76
2022/09/22 01:50:23;;;;;;;1999.90;999.90;;;11.70;99.90;;;;;;4993138;28;20030;-76
2022/09/22 01:52:51;;;;;;;1999.90;999.90;;;11.70;99.90;;;;;;4994787;28;20027;-81
2022/09/22 01:55:35;;;;;;;1999.90;999.90;;;11.60;99.90;;;;;;4993306;28;20494;-81
2022/09/22 01:58:05;;;;;;;1999.90;999.90;;;11.60;99.90;;;;;;4994404;28;20102;-76
2022/09/22 02:00:31;;;;;;;1999.90;999.90;;;11.60;99.90;;;;;;4994547;28;20474;-76
2022/09/22 02:03:18;;;;;;;1999.90;999.90;;;11.50;99.90;;;;;;4992909;28;20026;-76
2022/09/22 02:05:49;;;;;;;1999.90;999.90;;;11.60;99.90;;;;;;4994240;28;20125;-81
2022/09/22 02:08:36;;;;;;;1999.90;999.90;;;11.50;99.90;;;;;;4994409;28;20030;-77
2022/09/22 02:11:11;;;;;;;1999.90;999.90;;;11.50;99.90;;;;;;4993143;28;20065;-76
2022/09/22 02:13:36;;;;;;;1999.90;999.90;;;11.50;99.90;;;;;;4993661;28;20040;-76
2022/09/22 02:16:03;;;;;;;1999.90;999.90;;;11.40;99.90;;;;;;4994037;28;20113;-76
2022/09/22 02:19:11;;;;;;;1999.90;999.90;;;11.40;99.90;;;;;;4994040;28;20037;-81
2022/09/22 02:21:39;;;;;;;1999.90;999.90;;;11.40;99.90;;;;;;5003200;28;20096;-76
2022/09/22 02:24:05;;;;;;;1999.90;999.90;;;11.40;99.90;;;;;;4992583;28;20424;-81
2022/09/22 02:26:34;;;;;;;1999.90;999.90;;;11.40;99.90;;;;;;4992773;28;20081;-76
2022/09/22 02:29:07;;;;;;;1999.90;999.90;;;11.40;99.90;;;;;;4993937;28;20493;-76
2022/09/22 02:31:36;;;;;;;1999.90;999.90;;;11.30;99.90;;;;;;4993346;28;20076;-80
2022/09/22 02:34:03;;;;;;;1999.90;999.90;;;11.30;99.90;;;;;;4993802;28;20502;-81
2022/09/22 02:36:45;;;;;;;1999.90;999.90;;;11.30;99.90;;;;;;4993660;28;20564;-76
2022/09/22 02:39:19;;;;;;;1999.90;999.90;;;11.20;99.90;;;;;;4984755;28;20084;-76
2022/09/22 02:42:03;;;;;;;1999.90;999.90;;;11.20;99.90;;;;;;4993300;28;20158;-76
2022/09/22 02:44:44;;;;;;;1999.90;999.90;;;11.20;99.90;;;;;;4993662;28;20026;-76
2022/09/22 02:47:16;;;;;;;1999.90;999.90;;;11.20;99.90;;;;;;4992669;28;20022;-81
2022/09/22 02:49:43;;;;;;;1999.90;999.90;;;11.20;99.90;;;;;;4993601;28;20397;-81
2022/09/22 02:52:18;;;;;;;1999.90;999.90;;;11.10;99.90;;;;;;4993168;28;20042;-76
2022/09/22 02:54:44;;;;;;;1999.90;999.90;;;11.10;99.90;;;;;;4993798;28;20022;-76
2022/09/22 02:57:10;;;;;;;1999.90;999.90;;;11.10;99.90;;;;;;4993776;28;20426;-81
2022/09/22 02:59:35;;;;;;;1999.90;999.90;;;11.10;99.90;;;;;;4993370;28;20589;-81
2022/09/22 03:02:01;;;;;;;1999.90;999.90;;;11.10;99.90;;;;;;4991727;28;20382;-76
2022/09/22 03:04:26;;;;;;;1999.90;999.90;;;11.10;99.90;;;;;;4993591;28;20429;-76
2022/09/22 03:06:52;;;;;;;1999.90;999.90;;;11.10;99.90;;;;;;4993279;28;20490;-76
2022/09/22 03:09:18;;;;;;;1999.90;999.90;;;11.10;99.90;;;;;;4991995;28;20030;-76
2022/09/22 03:11:43;;;;;;;1999.90;999.90;;;11.10;99.90;;;;;;4992785;28;20038;-76
2022/09/22 03:14:09;;;;;;;1999.90;999.90;;;11.20;99.90;;;;;;4993212;28;20042;-76
2022/09/22 03:16:35;;;;;;;1999.90;999.90;;;11.20;99.90;;;;;;4993015;28;20034;-81
2022/09/22 03:19:00;;;;;;;1999.90;999.90;;;11.20;99.90;;;;;;4992968;28;20561;-76
2022/09/22 03:21:26;;;;;;;1999.90;999.90;;;11.30;99.90;;;;;;4992989;28;20486;-76
2022/09/22 03:23:52;;;;;;;1999.90;999.90;;;11.30;99.90;;;;;;4992757;28;20061;-81
2022/09/22 03:26:17;;;;;;;1999.90;999.90;;;11.40;99.90;;;;;;4992833;28;20097;-76
2022/09/22 03:28:43;;;;;;;1999.90;999.90;;;11.40;99.90;;;;;;4993133;28;20015;-81
2022/09/22 03:31:10;;;;;;;1999.90;999.90;;;11.40;99.90;;;;;;4992957;28;20037;-76
2022/09/22 03:33:36;;;;;;;1999.90;999.90;;;11.40;99.90;;;;;;4992611;28;20049;-76
2022/09/22 03:36:03;;;;;;;1999.90;999.90;;;11.40;99.90;;;;;;4992796;28;20486;-80
2022/09/22 03:38:28;;;;;;;1999.90;999.90;;;11.40;99.90;;;;;;4983455;28;20049;-81
2022/09/22 03:40:56;;;;;;;1999.90;999.90;;;11.40;99.90;;;;;;4992809;28;20118;-81
2022/09/22 03:43:22;;;;;;;1999.90;999.90;;;11.40;99.90;;;;;;4992763;28;20482;-76
2022/09/22 03:45:47;;;;;;;1999.90;999.90;;;11.30;99.90;;;;;;4992683;28;20098;-76
2022/09/22 03:48:13;;;;;;;1999.90;999.90;;;11.30;99.90;;;;;;4991723;28;20391;-81
2022/09/22 03:50:38;;;;;;;1999.90;999.90;;;11.20;99.90;;;;;;4992727;28;20030;-81
2022/09/22 03:53:04;;;;;;;1999.90;999.90;;;11.20;99.90;;;;;;4992787;28;20061;-81
2022/09/22 03:55:29;;;;;;;1999.90;999.90;;;11.20;99.90;;;;;;4992513;28;20027;-76
2022/09/22 03:57:55;;;;;;;1999.90;999.90;;;11.10;99.90;;;;;;4992041;28;20037;-76
2022/09/22 04:00:21;;;;;;;1999.90;999.90;;;11.10;99.90;;;;;;4992390;28;20482;-76
2022/09/22 04:02:46;;;;;;;1999.90;999.90;;;11.00;99.90;;;;;;4992487;28;20076;-81
2022/09/22 04:05:12;;;;;;;1999.90;999.90;;;10.90;99.90;;;;;;4992710;28;20147;-81
2022/09/22 04:07:37;;;;;;;1999.90;999.90;;;10.90;99.90;;;;;;4991064;28;20038;-81
2022/09/22 04:10:04;;;;;;;1999.90;999.90;;;10.90;99.90;;;;;;4992293;28;20030;-76
2022/09/22 04:12:29;;;;;;;1999.90;999.90;;;10.90;99.90;;;;;;4992216;28;20031;-76
2022/09/22 04:14:55;;;;;;;1999.90;999.90;;;10.80;99.90;;;;;;4992696;28;20045;-81
2022/09/22 04:17:21;;;;;;;1999.90;999.90;;;10.80;99.90;;;;;;4991214;28;20030;-81
2022/09/22 04:19:46;;;;;;;1999.90;999.90;;;10.80;99.90;;;;;;4992078;28;20088;-81
2022/09/22 04:22:13;;;;;;;1999.90;999.90;;;10.80;99.90;;;;;;4992292;28;20032;-76
2022/09/22 04:24:38;;;;;;;1999.90;999.90;;;10.70;99.90;;;;;;4992198;28;20485;-76
2022/09/22 04:27:04;;;;;;;1999.90;999.90;;;10.70;99.90;;;;;;4992484;28;20074;-81
2022/09/22 04:29:29;;;;;;;1999.90;999.90;;;10.70;99.90;;;;;;4992235;28;20045;-81
2022/09/22 04:31:55;;;;;;;1999.90;999.90;;;10.60;99.90;;;;;;4991717;28;20031;-81
2022/09/22 04:34:21;;;;;;;1999.90;999.90;;;10.50;99.90;;;;;;4992270;28;20034;-76
2022/09/22 04:36:46;;;;;;;1999.90;999.90;;;10.50;99.90;;;;;;4992219;28;20441;-76
2022/09/22 04:39:12;;;;;;;1999.90;999.90;;;10.40;99.90;;;;;;4983072;28;20038;-76
2022/09/22 04:41:37;;;;;;;1999.90;999.90;;;10.30;99.90;;;;;;4990817;28;20037;-81
2022/09/22 04:44:03;;;;;;;1999.90;999.90;;;10.30;99.90;;;;;;4992081;28;20027;-76
2022/09/22 04:46:29;;;;;;;1999.90;999.90;;;10.20;99.90;;;;;;4992181;28;20070;-76
2022/09/22 04:48:55;;;;;;;1999.90;999.90;;;10.20;99.90;;;;;;4990033;28;20018;-76
2022/09/22 04:51:20;;;;;;;1999.90;999.90;;;10.20;99.90;;;;;;4992150;28;20058;-76
2022/09/22 04:53:46;;;;;;;1999.90;999.90;;;10.10;99.90;;;;;;4992213;28;20031;-81
2022/09/22 04:56:12;;;;;;;1999.90;999.90;;;10.10;99.90;;;;;;4991621;28;20568;-76
2022/09/22 04:58:37;;;;;;;1999.90;999.90;;;10.10;99.90;;;;;;4985085;28;20038;-81
2022/09/22 05:01:06;;;;;;;1999.90;999.90;;;10.10;99.90;;;;;;4971269;28;20514;-80
2022/09/22 05:03:32;;;;;;;1999.90;999.90;;;10.10;99.90;;;;;;4972225;28;20030;-76
2022/09/22 05:05:57;;;;;;;1999.90;999.90;;;10.10;99.90;;;;;;4970892;28;20054;-81
2022/09/22 05:08:23;;;;;;;1999.90;999.90;;;10.20;99.90;;;;;;4972642;28;20030;-81
2022/09/22 05:10:50;;;;;;;1999.90;999.90;;;10.20;99.90;;;;;;4976133;28;20027;-81
2022/09/22 05:13:15;;;;;;;1999.90;999.90;;;10.20;99.90;;;;;;4975842;28;20099;-81
2022/09/22 05:15:41;;;;;;;1999.90;999.90;;;10.20;99.90;;;;;;4975861;28;20472;-81
2022/09/22 05:18:07;;;;;;;1999.90;999.90;;;10.20;99.90;;;;;;4992593;28;20030;-76
2022/09/22 05:20:33;;;;;;;1999.90;999.90;;;10.10;99.90;;;;;;4974173;28;20030;-81
2022/09/22 05:22:58;;;;;;;1999.90;999.90;;;10.10;99.90;;;;;;4974306;28;20031;-76
2022/09/22 05:25:24;;;;;;;1999.90;999.90;;;10.10;99.90;;;;;;4975662;28;20058;-81
2022/09/22 05:27:52;;;;;;;1999.90;999.90;;;10.10;99.90;;;;;;4975459;28;20046;-76
2022/09/22 05:30:20;;;;;;;1999.90;999.90;;;10.10;99.90;;;;;;4974213;28;20046;-75
2022/09/22 05:32:47;;;;;;;1999.90;999.90;;;10.10;99.90;;;;;;4980442;28;20036;-80
2022/09/22 05:35:15;;;;;;;1999.90;999.90;;;10.10;99.90;;;;;;4987856;28;20097;-80
2022/09/22 05:37:45;;;;;;;1999.90;999.90;;;10.20;99.90;;;;;;4980380;28;20030;-81
2022/09/22 05:40:12;;;;;;;1999.90;999.90;;;10.20;99.90;;;;;;4994380;28;20025;-76
2022/09/22 05:42:50;;;;;;;1999.90;999.90;;;10.00;99.90;;;;;;4984947;28;20030;-76
2022/09/22 05:45:17;;;;;;;1999.90;999.90;;;9.90;99.90;;;;;;4975112;28;20022;-81
2022/09/22 05:47:43;;;;;;;1999.90;999.90;;;9.90;99.90;;;;;;4974588;28;20435;-76
2022/09/22 05:50:10;;;;;;;1999.90;999.90;;;9.80;99.90;;;;;;4989090;28;20026;-77
2022/09/22 05:52:36;;;;;;;1999.90;999.90;;;9.70;99.90;;;;;;4992657;28;20397;-81
2022/09/22 05:55:02;;;;;;;1999.90;999.90;;;9.70;99.90;;;;;;4994951;28;20022;-76
2022/09/22 05:57:28;;;;;;;1999.90;999.90;;;9.60;99.90;;;;;;4992607;28;20493;-76
2022/09/22 05:59:54;;;;;;;1999.90;999.90;;;9.60;99.90;;;;;;4993088;28;20034;-81
2022/09/22 06:02:20;;;;;;;1999.90;999.90;;;9.60;99.90;;;;;;4984533;28;20039;-76
2022/09/22 06:04:46;;;;;;;1999.90;999.90;;;9.60;99.90;;;;;;4983368;28;20492;-80
2022/09/22 06:07:11;;;;;;;1999.90;999.90;;;9.60;99.90;;;;;;4985417;28;20026;-76
2022/09/22 06:09:37;;;;;;;1999.90;999.90;;;9.60;99.90;;;;;;4984459;28;20036;-76
2022/09/22 06:12:03;;;;;;;1999.90;999.90;;;9.70;99.90;;;;;;4978824;28;20034;-80
2022/09/22 06:14:28;;;;;;;1999.90;999.90;;;9.70;99.90;;;;;;4989262;28;20022;-80
2022/09/22 06:16:54;;;;;;;1999.90;999.90;;;9.70;99.90;;;;;;4973038;28;20454;-80
2022/09/22 06:19:22;;;;;;;1999.90;999.90;;;9.70;99.90;;;;;;4973175;28;20049;-76
2022/09/22 06:21:48;;;;;;;1999.90;999.90;;;9.80;99.90;;;;;;4985419;28;20484;-76
2022/09/22 06:24:14;;;;;;;1999.90;999.90;;;9.80;99.90;;;;;;4992829;28;20524;-81
2022/09/22 06:26:40;;;;;;;1999.90;999.90;;;9.90;99.90;;;;;;4992664;28;20031;-81
2022/09/22 06:29:07;;;;;;;1999.90;999.90;;;9.90;99.90;;;;;;4988867;28;20029;-80
2022/09/22 06:31:32;;;;;;;1999.90;999.90;;;10.00;99.90;;;;;;4987048;28;20073;-80
2022/09/22 06:33:58;;;;;;;1999.90;999.90;;;10.10;99.90;;;;;;4984392;28;20054;-76
2022/09/22 06:36:29;;;;;;;1999.90;999.90;;;10.10;99.90;;;;;;4988967;28;20034;-81
2022/09/22 06:38:57;;;;;;;1999.90;999.90;;;10.20;99.90;;;;;;4987529;28;20126;-80
2022/09/22 06:41:24;;;;;;;1999.90;999.90;;;10.30;99.90;;;;;;4987917;28;20032;-80
2022/09/22 06:43:51;;;;;;;1999.90;999.90;;;10.40;99.90;;;;;;4987414;28;20026;-76
2022/09/22 06:46:17;;;;;;;1999.90;999.90;;;10.50;99.90;;;;;;4989618;28;20088;-79
2022/09/22 06:48:44;;;;;;;1999.90;999.90;;;10.70;99.90;;;;;;4987973;28;20023;-76
2022/09/22 06:51:09;;;;;;;1999.90;999.90;;;10.80;99.90;;;;;;4990434;28;20482;-78
2022/09/22 06:53:35;;;;;;;1999.90;999.90;;;10.90;99.90;;;;;;4991172;28;20126;-80
2022/09/22 06:56:04;;;;;;;1999.90;999.90;;;11.00;99.90;;;;;;4990844;28;20093;-79
2022/09/22 06:58:30;;;;;;;1999.90;999.90;;;11.10;99.90;;;;;;4984134;28;20096;-76
2022/09/22 07:00:57;;;;;;;1999.90;999.90;;;11.10;99.90;;;;;;4989499;28;21041;-76
2022/09/22 07:03:25;;;;;;;1999.90;999.90;;;11.30;99.90;;;;;;4986749;28;20061;-79
2022/09/22 07:05:56;;;;;;;1999.90;999.90;;;11.30;99.90;;;;;;4990470;28;20058;-79
2022/09/22 07:08:22;;;;;;;1999.90;999.90;;;11.40;99.90;;;;;;4990154;28;20109;-79
2022/09/22 07:11:01;;;;;;;1999.90;999.90;;;11.50;99.90;;;;;;4989455;28;20030;-80
2022/09/22 07:13:28;;;;;;;1999.90;999.90;;;11.60;99.90;;;;;;4986731;28;20450;-76
2022/09/22 07:16:02;;;;;;;1999.90;999.90;;;11.70;99.90;;;;;;4983066;28;20026;-76
2022/09/22 07:18:28;;;;;;;1999.90;999.90;;;11.80;99.90;;;;;;4988363;28;20030;-76
2022/09/22 07:21:08;;;;;;;1999.90;999.90;;;11.90;99.90;;;;;;4990263;28;20085;-76
2022/09/22 07:23:35;;;;;;;1999.90;999.90;;;12.00;99.90;;;;;;4983463;28;20015;-76
2022/09/22 07:26:05;;;;;;;1999.90;999.90;;;12.10;99.90;;;;;;4986456;28;20122;-75
2022/09/22 07:28:33;;;;;;;1999.90;999.90;;;12.50;99.90;;;;;;4986730;28;20030;-80
2022/09/22 07:31:04;;;;;;;1999.90;999.90;;;14.40;99.90;;;;;;4990669;28;20120;-80
2022/09/22 07:33:34;;;;;;;1999.90;999.90;;;15.50;98.50;;;;;;4975791;28;20053;-80
2022/09/22 07:36:03;;;;;;;1999.90;999.90;;;14.70;99.20;;;;;;4979821;28;20037;-79
2022/09/22 07:38:32;;;;;;;1999.90;999.90;;;13.90;99.90;;;;;;4975557;28;20022;-74
2022/09/22 07:41:00;;;;;;;1999.90;999.90;;;13.60;99.90;;;;;;4989346;28;20041;-74
2022/09/22 07:43:27;;;;;;;1999.90;999.90;;;13.60;99.90;;;;;;4983228;28;20027;-74
2022/09/22 07:45:56;;;;;;;1999.90;999.90;;;13.60;99.90;;;;;;4988860;28;20100;-80
2022/09/22 07:48:36;;;;;;;1999.90;999.90;;;13.70;99.90;;;;;;4991239;28;20022;-79
2022/09/22 07:51:07;;;;;;;1999.90;999.90;;;13.90;99.90;;;;;;4990773;28;20109;-75
2022/09/22 07:53:34;;;;;;;1999.90;999.90;;;14.30;99.90;;;;;;4990234;28;20161;-76
2022/09/22 07:56:17;;;;;;;1999.90;999.90;;;15.90;98.70;;;;;;4990581;28;20048;-80
2022/09/22 07:58:51;;;;;;;1999.90;999.90;;;19.20;95.00;;;;;;4989890;28;20030;-76
2022/09/22 08:01:18;;;;;;;1999.90;999.90;;;21.30;91.50;;;;;;4987763;28;20069;-81
2022/09/22 08:03:46;;;;;;;1999.90;999.90;;;22.70;90.00;;;;;;4978683;28;20462;-76
2022/09/22 08:06:14;;;;;;;1999.90;999.90;;;23.40;87.70;;;;;;4985888;28;20086;-76
2022/09/22 08:08:41;;;;;;;1999.90;999.90;;;23.80;85.90;;;;;;4984328;28;20018;-82
2022/09/22 08:11:13;;;;;;;1999.90;999.90;;;23.90;85.50;;;;;;4986339;28;20035;-76
2022/09/22 08:13:40;;;;;;;;;;;23.50;86.00;;;;;;4990379;28;20405;-76
2022/09/22 08:16:06;;;;;;;1999.90;999.90;;;22.50;86.70;;;;;;4990228;28;19917;-81
2022/09/22 08:18:33;;;;;;;1999.90;999.90;;;20.70;90.30;;;;;;4990269;28;20026;-76
2022/09/22 08:21:00;;;;;;;1999.90;999.90;;;19.20;92.00;;;;;;4980426;28;20033;-81
2022/09/22 08:23:30;;;;;;;1999.90;999.90;;;19.50;92.00;;;;;;4990532;28;20194;-81
2022/09/22 08:26:00;;;;;;;1999.90;999.90;;;22.10;89.50;;;;;;4989541;28;20477;-80
2022/09/22 08:28:26;;;;;;;1999.90;999.90;;;24.00;85.80;;;;;;4989492;28;20402;-81
2022/09/22 08:30:52;;;;;;;1999.90;999.90;;;24.30;84.70;;;;;;4989756;28;20033;-76
2022/09/22 08:33:17;;;;;;;1999.90;999.90;;;23.10;85.50;;;;;;4987734;28;20034;-76
2022/09/22 08:35:54;;;;;;;1999.90;999.90;;;23.20;86.20;;;;;;4990395;28;20057;-81
2022/09/22 08:38:22;;;;;;;1999.90;999.90;;;24.30;84.30;;;;;;4990378;28;20463;-74
2022/09/22 08:41:05;;;;;;;1999.90;999.90;;;25.70;82.20;;;;;;4989132;28;20050;-74
2022/09/22 08:43:31;;;;;;;1999.90;999.90;;;26.10;81.00;;;;;;4990972;28;20026;-74
2022/09/22 08:45:59;;;;;;;1999.90;999.90;;;26.70;80.10;;;;;;4987111;28;20034;-74
2022/09/22 08:54:07;;;;;;;1999.90;999.90;;;27.10;79.30;;;;;;4991904;28;20033;-75
2022/09/22 08:56:40;;;;;;;1999.90;999.90;;;27.60;78.20;;;;;;4990916;28;20034;-75
2022/09/22 08:59:15;;;;;;;1999.90;999.90;;;27.20;78.00;;;;;;4991515;28;20061;-75
2022/09/22 09:01:53;;;;;;;1999.90;999.90;;;26.40;79.50;;;;;;4989989;28;20489;-79
2022/09/22 09:04:52;;;;;;;1999.90;999.90;;;25.50;81.00;;;;;;4985858;28;20038;-79
2022/09/22 09:07:55;;;;;;;1999.90;999.90;;;25.80;80.70;;;;;;4983057;28;20030;-80
2022/09/22 09:10:31;;;;;;;1999.90;999.90;;;25.50;80.90;;;;;;4983255;28;20030;-75
2022/09/22 09:13:17;;;;;;;1999.90;999.90;;;26.60;80.20;;;;;;4977186;28;20054;-74
2022/09/22 09:16:05;;;;;;;1999.90;999.90;;;27.20;78.10;;;;;;4980533;28;20085;-79
2022/09/22 09:18:35;;;;;;;1999.90;999.90;;;27.80;77.50;;;;;;4991759;28;20081;-81
2022/09/22 09:21:06;;;;;;;1999.90;999.90;;;27.50;77.30;;;;;;4993661;28;20049;-81
2022/09/22 09:23:46;;;;;;;1999.90;999.90;;;27.80;78.50;;;;;;4993080;28;20474;-77
2022/09/22 09:26:14;;;;;;;1999.90;999.90;;;27.10;78.30;;;;;;4984665;28;20054;-77
2022/09/22 09:28:46;;;;;;;1999.90;999.90;;;25.60;79.80;;;;;;4974113;28;20077;-81
2022/09/22 09:31:35;;;;;;;1999.90;999.90;;;24.50;81.60;;;;;;4973863;28;20114;-83
2022/09/22 09:34:10;;;;;;;1999.90;999.90;;;23.80;82.40;;;;;;4980571;28;20035;-77
2022/09/22 09:36:40;;;;;;;1999.90;999.90;;;23.10;83.90;;;;;;4993123;28;20450;-77
2022/09/22 09:39:30;;;;;;;1999.90;999.90;;;23.00;84.70;;;;;;4993655;28;20105;-82
2022/09/22 09:41:57;;;;;;;1999.90;999.90;;;23.00;83.20;;;;;;4986731;28;20414;-77
2022/09/22 09:44:32;;;;;;;1999.90;999.90;;;22.80;83.60;;;;;;4991342;28;20025;-81
2022/09/22 09:47:18;;;;;;;1999.90;999.90;;;22.80;84.50;;;;;;4992655;28;20045;-77
2022/09/22 09:49:44;;;;;;;1999.90;999.90;;;22.70;83.90;;;;;;4984112;28;20090;-76
2022/09/22 09:52:13;;;;;;;1999.90;999.90;;;22.70;83.60;;;;;;4991667;28;20034;-83
2022/09/22 09:54:41;;;;;;;1999.90;999.90;;;22.50;83.40;;;;;;4990598;28;20504;-83
2022/09/22 09:57:09;;;;;;;1999.90;999.90;;;22.50;84.50;;;;;;4993233;28;20544;-78
2022/09/22 10:02:31;;;;;;;1999.90;999.90;;;22.90;83.50;;;;;;4973361;28;20073;-85
2022/09/22 10:05:02;;;;;;;1999.90;999.90;;;22.90;83.60;;;;;;4991017;28;20035;-84
2022/09/22 10:07:40;;;;;;;1999.90;999.90;;;22.80;83.00;;;;;;4991558;28;20030;-82
2022/09/22 10:10:35;;;;;;;1999.90;999.90;;;22.70;83.30;;;;;;4991903;28;20023;-83
2022/09/22 10:13:04;;;;;;;1999.90;999.90;;;22.90;83.00;;;;;;4972764;28;20026;-83
2022/09/22 10:15:31;;;;;;;1999.90;999.90;;;23.00;83.00;;;;;;4977947;28;20026;-78
2022/09/22 10:17:57;;;;;;;1999.90;999.90;;;22.70;83.50;;;;;;4991115;28;20555;-82
2022/09/22 10:20:24;;;;;;;1999.90;999.90;;;22.70;83.00;;;;;;4988521;28;20030;-82
2022/09/22 10:22:50;;;;;;;1999.90;999.90;;;23.00;84.10;;;;;;4992542;28;20056;-82
2022/09/22 10:25:28;;;;;;;1999.90;999.90;;;23.20;83.60;;;;;;4988649;28;20473;-82
2022/09/22 10:28:11;;;;;;;1999.90;999.90;;;23.30;82.50;;;;;;4991926;28;20022;-78
2022/09/22 10:30:38;;;;;;;1999.90;999.90;;;23.10;81.80;;;;;;4980162;28;20037;-82
2022/09/22 10:33:14;;;;;;;1999.90;999.90;;;22.80;83.00;;;;;;4973691;28;20084;-80
2022/09/22 10:35:46;;;;;;;1999.90;999.90;;;22.60;83.00;;;;;;4971979;28;20019;-83
2022/09/22 10:38:28;;;;;;;1999.90;999.90;;;22.70;83.30;;;;;;4973233;28;20030;-77
2022/09/22 10:41:07;;;;;;;1999.90;999.90;;;22.70;83.50;;;;;;4974105;28;20077;-82
2022/09/22 10:43:43;;;;;;;1999.90;999.90;;;22.80;83.90;;;;;;4989697;28;20106;-83
2022/09/22 10:46:17;;;;;;;1999.90;999.90;;;22.80;83.60;;;;;;4989448;28;20018;-83
2022/09/22 10:49:04;;;;;;;1999.90;999.90;;;22.80;82.70;;;;;;4988237;28;20034;-83
2022/09/22 10:51:41;;;;;;;1999.90;999.90;;;22.90;83.40;;;;;;4989386;28;20109;-83
2022/09/22 10:54:16;;;;;;;1999.90;999.90;;;22.90;82.80;;;;;;4987756;28;20026;-77
2022/09/22 10:56:57;;;;;;;1999.90;999.90;;;22.90;83.60;;;;;;4986012;28;20041;-83
2022/09/22 10:59:35;;;;;;;1999.90;999.90;;;23.00;83.80;;;;;;4989409;28;20018;-83
2022/09/22 11:02:43;;;;;;;1999.90;999.90;;;22.70;83.20;;;;;;4989104;28;20112;-82
2022/09/22 11:14:10;;;;;;;1999.90;999.90;;;23.40;82.50;;;;;;4991518;28;20122;-83
2022/09/22 11:16:54;;;;;;;1999.90;999.90;;;23.30;83.10;;;;;;4991553;28;20129;-84
2022/09/22 11:19:34;;;;;;;1999.90;999.90;;;23.20;82.70;;;;;;4990983;28;20081;-83
2022/09/22 11:22:02;;;;;;;1999.90;999.90;;;23.50;83.00;;;;;;4990186;28;20096;-78
2022/09/22 11:24:55;;;;;;;1999.90;999.90;;;23.50;82.70;;;;;;4991405;28;20112;-84
2022/09/22 11:27:54;;;;;;;1999.90;999.90;;;23.40;82.40;;;;;;4991891;28;20022;-83
2022/09/22 11:30:21;;;;;;;1999.90;999.90;;;23.60;81.90;;;;;;4985881;28;20038;-83
2022/09/22 11:33:01;;;;;;;1999.90;999.90;;;23.50;81.80;;;;;;4987824;28;20026;-84
2022/09/22 11:35:38;;;;;;;1999.90;999.90;;;23.70;81.10;;;;;;4990457;28;20121;-83
2022/09/22 11:38:18;;;;;;;1999.90;999.90;;;23.80;82.20;;;;;;4979940;28;20038;-81
2022/09/22 11:41:01;;;;;;;1999.90;999.90;;;23.90;80.50;;;;;;4976385;28;20501;-85
2022/09/22 11:43:33;;;;;;;1999.90;999.90;;;23.70;80.80;;;;;;4984338;28;20014;-77
2022/09/22 11:46:23;;;;;;;1999.90;999.90;;;23.70;81.20;;;;;;4988467;28;20053;-80
2022/09/22 11:49:14;;;;;;;1999.90;999.90;;;23.70;81.00;;;;;;4983776;28;20023;-83
2022/09/22 11:51:59;;;;;;;1999.90;999.90;;;23.80;80.90;;;;;;4987227;28;20086;-77
2022/09/22 11:54:51;;;;;;;1999.90;999.90;;;23.80;81.20;;;;;;4974961;28;20027;-84
2022/09/22 11:57:22;;;;;;;1999.90;999.90;;;24.00;81.50;;;;;;4989407;28;20045;-78
2022/09/22 11:59:54;;;;;;;1999.90;999.90;;;24.30;80.90;;;;;;4984678;28;20464;-84
2022/09/22 12:02:24;;;;;;;1999.90;999.90;;;24.30;81.10;;;;;;4971037;28;20117;-84
2022/09/22 12:04:57;;;;;;;1999.90;999.90;;;24.50;80.30;;;;;;4987754;28;20129;-85
2022/09/22 12:07:30;;;;;;;1999.90;999.90;;;24.30;79.90;;;;;;4982865;28;20110;-83
2022/09/22 12:10:01;;;;;;;1999.90;999.90;;;24.40;80.70;;;;;;4987269;28;20034;-78
2022/09/22 12:12:30;;;;;;;1999.90;999.90;;;24.70;78.90;;;;;;4986359;28;20393;-77
2022/09/22 12:15:13;;;;;;;1999.90;999.90;;;25.00;78.90;;;;;;4983312;28;20026;-79
2022/09/22 12:18:18;;;;;;;1999.90;999.90;;;25.30;78.80;;;;;;4986666;28;20027;-77
2022/09/22 12:21:13;;;;;;;1999.90;999.90;;;25.50;75.80;;;;;;4991940;28;20042;-81
2022/09/22 12:23:49;;;;;;;1999.90;999.90;;;25.60;76.30;;;;;;4980997;28;20478;-76
2022/09/22 12:26:30;;;;;;;1999.90;999.90;;;25.40;76.60;;;;;;4993213;28;20044;-77
2022/09/22 12:28:58;;;;;;;1999.90;999.90;;;25.50;78.20;;;;;;4993131;28;20076;-81
2022/09/22 12:31:33;;;;;;;1999.90;999.90;;;25.50;78.40;;;;;;4990005;28;20023;-78
2022/09/22 12:34:00;;;;;;;1999.90;999.90;;;25.40;78.10;;;;;;4989647;28;20117;-78
2022/09/22 12:36:30;;;;;;;1999.90;999.90;;;25.20;78.00;;;;;;4993326;28;20026;-77
2022/09/22 12:39:16;;;;;;;1999.90;999.90;;;25.30;77.90;;;;;;4993704;28;20030;-77
2022/09/22 12:41:56;;;;;;;1999.90;999.90;;;25.50;77.90;;;;;;4986723;28;20497;-80